sensor_id;sensor_type;location;lat;lon;timestamp;pressure;altitude;pressure_sealevel;temperature;humidity
80414;BME280;69758;52.580;13.068;2023-07-30T00:00:43;100604.90;;;24.78;37.78
80414;BME280;69758;52.580;13.068;2023-07-30T00:03:09;100607.91;;;24.98;37.79
80414;BME280;69758;52.580;13.068;2023-07-30T00:05:34;100609.46;;;24.95;37.81
80414;BME280;69758;52.580;13.068;2023-07-30T00:07:58;100604.02;;;24.65;37.90
80414;BME280;69758;52.580;13.068;2023-07-30T00:10:24;100602.79;;;24.84;37.91
80414;BME280;69758;52.580;13.068;2023-07-30T00:12:48;100600.88;;;24.28;37.88
80414;BME280;69758;52.580;13.068;2023-07-30T00:15:13;100600.15;;;24.73;37.80
80414;BME280;69758;52.580;13.068;2023-07-30T00:17:53;100597.74;;;24.17;37.86
80414;BME280;69758;52.580;13.068;2023-07-30T00:20:05;100599.44;;;24.19;37.84
80414;BME280;69758;52.580;13.068;2023-07-30T00:22:29;100597.92;;;24.66;37.86
80414;BME280;69758;52.580;13.068;2023-07-30T00:24:55;100593.33;;;24.62;37.80
80414;BME280;69758;52.580;13.068;2023-07-30T00:27:26;100592.24;;;24.35;37.88
80414;BME280;69758;52.580;13.068;2023-07-30T00:29:46;100592.19;;;24.34;37.84
80414;BME280;69758;52.580;13.068;2023-07-30T00:32:10;100592.53;;;24.56;37.71
80414;BME280;69758;52.580;13.068;2023-07-30T00:34:34;100589.49;;;24.50;37.53
80414;BME280;69758;52.580;13.068;2023-07-30T00:36:59;100587.37;;;24.38;37.46
80414;BME280;69758;52.580;13.068;2023-07-30T00:39:30;100584.97;;;24.23;37.50
80414;BME280;69758;52.580;13.068;2023-07-30T00:42:05;100580.42;;;24.16;37.55
80414;BME280;69758;52.580;13.068;2023-07-30T00:47:04;100575.69;;;23.77;37.50
80414;BME280;69758;52.580;13.068;2023-07-30T00:49:46;100572.95;;;23.97;37.50
80414;BME280;69758;52.580;13.068;2023-07-30T00:51:46;100573.63;;;24.04;37.43
80414;BME280;69758;52.580;13.068;2023-07-30T00:54:07;100572.60;;;24.09;37.62
80414;BME280;69758;52.580;13.068;2023-07-30T00:56:24;100571.56;;;23.82;37.71
80414;BME280;69758;52.580;13.068;2023-07-30T00:58:49;100567.80;;;23.83;37.60
80414;BME280;69758;52.580;13.068;2023-07-30T01:01:11;100564.04;;;24.01;37.44
80414;BME280;69758;52.580;13.068;2023-07-30T01:03:37;100557.43;;;23.91;37.39
80414;BME280;69758;52.580;13.068;2023-07-30T01:06:15;100554.48;;;23.81;37.42
80414;BME280;69758;52.580;13.068;2023-07-30T01:08:32;100555.93;;;23.68;37.50
80414;BME280;69758;52.580;13.068;2023-07-30T01:10:52;100560.65;;;23.65;37.54
80414;BME280;69758;52.580;13.068;2023-07-30T01:13:16;100564.07;;;23.68;37.62
80414;BME280;69758;52.580;13.068;2023-07-30T01:15:42;100572.16;;;23.67;37.63
80414;BME280;69758;52.580;13.068;2023-07-30T01:18:06;100578.36;;;23.65;37.73
80414;BME280;69758;52.580;13.068;2023-07-30T01:20:31;100579.37;;;23.84;37.65
80414;BME280;69758;52.580;13.068;2023-07-30T01:22:56;100581.60;;;23.81;37.67
80414;BME280;69758;52.580;13.068;2023-07-30T01:25:25;100584.11;;;23.53;37.66
80414;BME280;69758;52.580;13.068;2023-07-30T01:27:52;100590.09;;;23.76;37.40
80414;BME280;69758;52.580;13.068;2023-07-30T01:30:21;100592.35;;;23.44;37.25
80414;BME280;69758;52.580;13.068;2023-07-30T01:32:37;100594.84;;;23.60;37.20
80414;BME280;69758;52.580;13.068;2023-07-30T01:35:07;100595.68;;;23.76;37.30
80414;BME280;69758;52.580;13.068;2023-07-30T01:37:30;100598.17;;;23.20;37.34
80414;BME280;69758;52.580;13.068;2023-07-30T01:39:55;100596.75;;;23.61;37.46
80414;BME280;69758;52.580;13.068;2023-07-30T01:42:20;100593.83;;;23.12;37.44
80414;BME280;69758;52.580;13.068;2023-07-30T01:44:43;100596.14;;;23.15;37.32
80414;BME280;69758;52.580;13.068;2023-07-30T01:47:13;100600.06;;;23.12;37.31
80414;BME280;69758;52.580;13.068;2023-07-30T01:49:43;100601.25;;;23.34;37.37
80414;BME280;69758;52.580;13.068;2023-07-30T01:52:05;100597.80;;;23.26;37.36
80414;BME280;69758;52.580;13.068;2023-07-30T01:54:25;100599.11;;;22.96;37.28
80414;BME280;69758;52.580;13.068;2023-07-30T01:59:13;100603.14;;;23.08;37.02
80414;BME280;69758;52.580;13.068;2023-07-30T02:01:40;100603.00;;;23.43;37.18
80414;BME280;69758;52.580;13.068;2023-07-30T02:04:04;100603.36;;;23.13;37.26
80414;BME280;69758;52.580;13.068;2023-07-30T02:06:30;100598.14;;;23.06;37.27
80414;BME280;69758;52.580;13.068;2023-07-30T02:08:54;100593.62;;;22.99;37.22
80414;BME280;69758;52.580;13.068;2023-07-30T02:11:22;100599.89;;;23.14;37.26
80414;BME280;69758;52.580;13.068;2023-07-30T02:13:46;100595.50;;;23.03;37.38
80414;BME280;69758;52.580;13.068;2023-07-30T02:16:20;100597.69;;;23.03;37.42
80414;BME280;69758;52.580;13.068;2023-07-30T02:18:35;100600.32;;;22.79;37.42
80414;BME280;69758;52.580;13.068;2023-07-30T02:21:00;100603.35;;;22.99;37.46
80414;BME280;69758;52.580;13.068;2023-07-30T02:23:24;100610.31;;;22.74;37.51
80414;BME280;69758;52.580;13.068;2023-07-30T02:28:16;100612.91;;;22.93;37.81
80414;BME280;69758;52.580;13.068;2023-07-30T02:30:42;100613.43;;;22.68;37.78
80414;BME280;69758;52.580;13.068;2023-07-30T02:33:14;100616.09;;;22.88;37.69
80414;BME280;69758;52.580;13.068;2023-07-30T02:35:35;100616.58;;;22.87;37.70
80414;BME280;69758;52.580;13.068;2023-07-30T02:37:55;100618.60;;;22.87;37.67
80414;BME280;69758;52.580;13.068;2023-07-30T02:40:21;100622.88;;;22.63;37.74
80414;BME280;69758;52.580;13.068;2023-07-30T02:42:45;100626.02;;;22.87;37.79
80414;BME280;69758;52.580;13.068;2023-07-30T02:45:11;100626.83;;;22.85;37.71
80414;BME280;69758;52.580;13.068;2023-07-30T02:47:35;100625.18;;;22.78;37.60
80414;BME280;69758;52.580;13.068;2023-07-30T02:50:01;100620.85;;;22.75;37.38
80414;BME280;69758;52.580;13.068;2023-07-30T02:52:26;100620.13;;;22.74;37.21
80414;BME280;69758;52.580;13.068;2023-07-30T02:54:53;100620.75;;;22.73;37.13
80414;BME280;69758;52.580;13.068;2023-07-30T02:57:18;100625.38;;;22.52;37.10
80414;BME280;69758;52.580;13.068;2023-07-30T02:59:44;100628.79;;;22.58;37.14
80414;BME280;69758;52.580;13.068;2023-07-30T03:02:09;100634.07;;;22.63;37.14
80414;BME280;69758;52.580;13.068;2023-07-30T03:04:40;100635.72;;;22.87;37.26
80414;BME280;69758;52.580;13.068;2023-07-30T03:07:11;100639.29;;;22.83;37.37
80414;BME280;69758;52.580;13.068;2023-07-30T03:09:25;100640.72;;;22.57;37.32
80414;BME280;69758;52.580;13.068;2023-07-30T03:11:51;100647.59;;;22.80;37.28
80414;BME280;69758;52.580;13.068;2023-07-30T03:14:13;100644.31;;;22.73;37.37
80414;BME280;69758;52.580;13.068;2023-07-30T03:16:38;100641.66;;;22.61;37.42
80414;BME280;69758;52.580;13.068;2023-07-30T03:19:06;100636.34;;;22.52;37.40
80414;BME280;69758;52.580;13.068;2023-07-30T03:21:29;100633.73;;;22.72;37.38
80414;BME280;69758;52.580;13.068;2023-07-30T03:23:56;100632.81;;;22.43;37.42
80414;BME280;69758;52.580;13.068;2023-07-30T03:26:22;100635.71;;;22.42;37.49
80414;BME280;69758;52.580;13.068;2023-07-30T03:28:48;100636.23;;;22.06;37.52
80414;BME280;69758;52.580;13.068;2023-07-30T03:31:12;100633.77;;;22.61;37.40
80414;BME280;69758;52.580;13.068;2023-07-30T03:33:49;100630.28;;;22.57;37.28
80414;BME280;69758;52.580;13.068;2023-07-30T03:36:17;100633.19;;;22.51;37.30
80414;BME280;69758;52.580;13.068;2023-07-30T03:38:32;100637.18;;;22.23;37.39
80414;BME280;69758;52.580;13.068;2023-07-30T03:41:04;100640.94;;;22.52;37.37
80414;BME280;69758;52.580;13.068;2023-07-30T03:43:17;100637.70;;;22.70;37.45
80414;BME280;69758;52.580;13.068;2023-07-30T03:45:41;100635.42;;;22.37;37.43
80414;BME280;69758;52.580;13.068;2023-07-30T03:48:06;100640.04;;;22.27;37.56
80414;BME280;69758;52.580;13.068;2023-07-30T03:50:29;100642.15;;;22.46;37.67
80414;BME280;69758;52.580;13.068;2023-07-30T03:52:54;100643.19;;;22.16;37.83
80414;BME280;69758;52.580;13.068;2023-07-30T03:55:20;100644.61;;;22.07;38.04
80414;BME280;69758;52.580;13.068;2023-07-30T03:57:44;100648.43;;;22.31;38.15
80414;BME280;69758;52.580;13.068;2023-07-30T04:00:10;100649.56;;;22.08;38.20
80414;BME280;69758;52.580;13.068;2023-07-30T04:02:35;100644.85;;;22.29;38.34
80414;BME280;69758;52.580;13.068;2023-07-30T04:05:00;100649.66;;;22.32;38.29
80414;BME280;69758;52.580;13.068;2023-07-30T04:07:25;100650.38;;;22.10;38.39
80414;BME280;69758;52.580;13.068;2023-07-30T04:09:55;100650.43;;;22.38;38.47
80414;BME280;69758;52.580;13.068;2023-07-30T04:12:15;100651.60;;;22.19;38.53
80414;BME280;69758;52.580;13.068;2023-07-30T04:14:41;100655.67;;;22.26;38.50
80414;BME280;69758;52.580;13.068;2023-07-30T04:17:05;100653.76;;;22.56;38.55
80414;BME280;69758;52.580;13.068;2023-07-30T04:19:31;100654.52;;;22.39;38.61
80414;BME280;69758;52.580;13.068;2023-07-30T04:21:56;100659.27;;;22.67;38.59
80414;BME280;69758;52.580;13.068;2023-07-30T04:24:21;100663.12;;;22.71;38.57
80414;BME280;69758;52.580;13.068;2023-07-30T04:26:51;100666.10;;;22.68;38.70
80414;BME280;69758;52.580;13.068;2023-07-30T04:29:45;100664.33;;;22.48;38.70
80414;BME280;69758;52.580;13.068;2023-07-30T04:31:38;100670.98;;;22.47;38.76
80414;BME280;69758;52.580;13.068;2023-07-30T04:34:03;100672.38;;;22.72;38.90
80414;BME280;69758;52.580;13.068;2023-07-30T04:36:27;100673.50;;;22.75;38.98
80414;BME280;69758;52.580;13.068;2023-07-30T04:38:56;100674.15;;;22.55;39.04
80414;BME280;69758;52.580;13.068;2023-07-30T04:41:36;100673.86;;;22.61;39.00
80414;BME280;69758;52.580;13.068;2023-07-30T04:43:43;100679.43;;;22.65;39.05
80414;BME280;69758;52.580;13.068;2023-07-30T04:46:08;100679.97;;;22.70;39.06
80414;BME280;69758;52.580;13.068;2023-07-30T04:48:33;100680.14;;;22.73;39.14
80414;BME280;69758;52.580;13.068;2023-07-30T04:50:58;100682.48;;;22.78;39.20
80414;BME280;69758;52.580;13.068;2023-07-30T04:53:25;100679.33;;;22.65;39.12
80414;BME280;69758;52.580;13.068;2023-07-30T04:58:15;100676.64;;;23.24;39.11
80414;BME280;69758;52.580;13.068;2023-07-30T05:00:40;100675.37;;;22.97;39.28
80414;BME280;69758;52.580;13.068;2023-07-30T05:03:04;100671.27;;;23.01;39.38
80414;BME280;69758;52.580;13.068;2023-07-30T05:05:30;100670.22;;;23.06;39.43
80414;BME280;69758;52.580;13.068;2023-07-30T05:07:54;100667.81;;;23.13;39.44
80414;BME280;69758;52.580;13.068;2023-07-30T05:10:22;100671.07;;;22.99;39.31
80414;BME280;69758;52.580;13.068;2023-07-30T05:12:45;100669.85;;;23.24;39.45
80414;BME280;69758;52.580;13.068;2023-07-30T05:15:13;100668.74;;;23.03;39.48
80414;BME280;69758;52.580;13.068;2023-07-30T05:17:43;100667.60;;;22.94;39.27
80414;BME280;69758;52.580;13.068;2023-07-30T05:20:22;100665.61;;;23.28;39.29
80414;BME280;69758;52.580;13.068;2023-07-30T05:25:01;100665.93;;;23.58;39.25
80414;BME280;69758;52.580;13.068;2023-07-30T05:27:20;100664.52;;;23.15;39.20
80414;BME280;69758;52.580;13.068;2023-07-30T05:29:47;100670.66;;;23.19;39.17
80414;BME280;69758;52.580;13.068;2023-07-30T05:32:19;100671.65;;;23.47;39.10
80414;BME280;69758;52.580;13.068;2023-07-30T05:34:52;100675.66;;;23.45;39.09
80414;BME280;69758;52.580;13.068;2023-07-30T05:41:51;100676.22;;;23.65;38.90
80414;BME280;69758;52.580;13.068;2023-07-30T05:44:53;100675.80;;;23.45;38.90
80414;BME280;69758;52.580;13.068;2023-07-30T05:47:01;100671.39;;;23.54;38.94
80414;BME280;69758;52.580;13.068;2023-07-30T05:54:00;100676.36;;;23.52;39.31
80414;BME280;69758;52.580;13.068;2023-07-30T05:56:54;100672.49;;;23.56;39.33
80414;BME280;69758;52.580;13.068;2023-07-30T05:59:16;100674.39;;;23.67;39.30
80414;BME280;69758;52.580;13.068;2023-07-30T06:01:18;100671.97;;;23.57;39.37
80414;BME280;69758;52.580;13.068;2023-07-30T06:03:46;100673.68;;;23.92;39.29
80414;BME280;69758;52.580;13.068;2023-07-30T06:06:28;100673.04;;;23.70;39.64
80414;BME280;69758;52.580;13.068;2023-07-30T06:08:29;100673.94;;;23.96;39.72
80414;BME280;69758;52.580;13.068;2023-07-30T06:11:22;100671.34;;;24.01;39.62
80414;BME280;69758;52.580;13.068;2023-07-30T06:13:20;100673.98;;;24.09;39.58
80414;BME280;69758;52.580;13.068;2023-07-30T06:20:46;100673.88;;;24.10;39.64
80414;BME280;69758;52.580;13.068;2023-07-30T06:23:01;100672.32;;;24.19;39.51
80414;BME280;69758;52.580;13.068;2023-07-30T06:25:26;100673.88;;;24.19;39.40
80414;BME280;69758;52.580;13.068;2023-07-30T06:27:56;100670.14;;;24.23;39.38
80414;BME280;69758;52.580;13.068;2023-07-30T06:35:05;100668.10;;;24.23;39.80
80414;BME280;69758;52.580;13.068;2023-07-30T06:37:27;100665.13;;;24.03;39.84
80414;BME280;69758;52.580;13.068;2023-07-30T06:39:59;100669.88;;;24.04;39.75
80414;BME280;69758;52.580;13.068;2023-07-30T06:42:23;100675.64;;;24.11;40.06
80414;BME280;69758;52.580;13.068;2023-07-30T06:47:31;100678.59;;;23.81;40.21
80414;BME280;69758;52.580;13.068;2023-07-30T06:49:34;100680.54;;;23.89;40.16
80414;BME280;69758;52.580;13.068;2023-07-30T06:52:13;100674.67;;;24.19;39.92
80414;BME280;69758;52.580;13.068;2023-07-30T06:54:29;100673.42;;;24.16;39.98
80414;BME280;69758;52.580;13.068;2023-07-30T06:57:07;100672.03;;;24.12;40.13
80414;BME280;69758;52.580;13.068;2023-07-30T06:59:28;100675.23;;;23.94;40.20
80414;BME280;69758;52.580;13.068;2023-07-30T07:04:04;100675.51;;;23.75;40.36
80414;BME280;69758;52.580;13.068;2023-07-30T07:06:46;100678.31;;;23.85;39.71
80414;BME280;69758;52.580;13.068;2023-07-30T07:08:56;100675.07;;;23.97;40.01
80414;BME280;69758;52.580;13.068;2023-07-30T07:11:16;100677.32;;;24.17;40.13
80414;BME280;69758;52.580;13.068;2023-07-30T07:16:03;100679.27;;;24.34;39.38
80414;BME280;69758;52.580;13.068;2023-07-30T07:18:28;100684.90;;;24.78;39.36
80414;BME280;69758;52.580;13.068;2023-07-30T07:21:09;100686.34;;;24.61;39.43
80414;BME280;69758;52.580;13.068;2023-07-30T07:28:22;100684.29;;;24.53;39.10
80414;BME280;69758;52.580;13.068;2023-07-30T07:35:23;100679.98;;;25.11;38.80
80414;BME280;69758;52.580;13.068;2023-07-30T07:40:13;100682.90;;;24.37;36.91
80414;BME280;69758;52.580;13.068;2023-07-30T07:42:38;100683.22;;;24.93;37.10
80414;BME280;69758;52.580;13.068;2023-07-30T07:45:04;100680.99;;;24.99;38.03
80414;BME280;69758;52.580;13.068;2023-07-30T07:47:28;100680.07;;;25.13;37.67
80414;BME280;69758;52.580;13.068;2023-07-30T07:49:53;100680.26;;;24.91;36.26
80414;BME280;69758;52.580;13.068;2023-07-30T07:52:18;100684.67;;;25.03;36.72
80414;BME280;69758;52.580;13.068;2023-07-30T07:54:43;100688.46;;;24.55;35.79
80414;BME280;69758;52.580;13.068;2023-07-30T07:57:08;100690.48;;;24.93;36.71
80414;BME280;69758;52.580;13.068;2023-07-30T07:59:33;100686.26;;;24.82;36.91
80414;BME280;69758;52.580;13.068;2023-07-30T08:01:58;100691.40;;;24.92;37.34
80414;BME280;69758;52.580;13.068;2023-07-30T08:04:23;100689.99;;;24.86;36.53
80414;BME280;69758;52.580;13.068;2023-07-30T08:06:48;100692.81;;;24.93;35.66
80414;BME280;69758;52.580;13.068;2023-07-30T08:09:13;100695.79;;;24.90;36.81
80414;BME280;69758;52.580;13.068;2023-07-30T08:11:38;100694.70;;;24.74;36.75
80414;BME280;69758;52.580;13.068;2023-07-30T08:14:04;100694.89;;;24.56;37.23
80414;BME280;69758;52.580;13.068;2023-07-30T08:16:30;100695.30;;;24.70;37.19
80414;BME280;69758;52.580;13.068;2023-07-30T08:18:54;100694.08;;;24.69;36.98
80414;BME280;69758;52.580;13.068;2023-07-30T08:21:18;100696.33;;;24.64;36.92
80414;BME280;69758;52.580;13.068;2023-07-30T08:23:45;100696.37;;;24.31;36.12
80414;BME280;69758;52.580;13.068;2023-07-30T08:26:12;100693.45;;;24.61;36.48
80414;BME280;69758;52.580;13.068;2023-07-30T08:28:33;100692.87;;;24.45;36.78
80414;BME280;69758;52.580;13.068;2023-07-30T08:31:00;100689.24;;;24.64;36.35
80414;BME280;69758;52.580;13.068;2023-07-30T08:33:23;100689.65;;;24.91;36.50
80414;BME280;69758;52.580;13.068;2023-07-30T08:35:50;100689.90;;;25.15;36.58
80414;BME280;69758;52.580;13.068;2023-07-30T08:38:13;100687.60;;;25.14;35.25
80414;BME280;69758;52.580;13.068;2023-07-30T08:40:44;100684.92;;;25.16;35.42
80414;BME280;69758;52.580;13.068;2023-07-30T08:43:04;100685.66;;;25.17;36.28
80414;BME280;69758;52.580;13.068;2023-07-30T08:45:29;100680.54;;;25.19;36.03
80414;BME280;69758;52.580;13.068;2023-07-30T08:48:01;100684.14;;;25.41;35.29
80414;BME280;69758;52.580;13.068;2023-07-30T08:50:30;100685.48;;;25.68;34.21
80414;BME280;69758;52.580;13.068;2023-07-30T08:52:44;100688.47;;;25.63;33.15
80414;BME280;69758;52.580;13.068;2023-07-30T08:55:10;100689.45;;;25.55;33.15
80414;BME280;69758;52.580;13.068;2023-07-30T08:57:34;100687.88;;;25.37;33.08
80414;BME280;69758;52.580;13.068;2023-07-30T09:00:02;100684.08;;;25.70;33.27
80414;BME280;69758;52.580;13.068;2023-07-30T09:02:31;100684.96;;;26.05;33.66
80414;BME280;69758;52.580;13.068;2023-07-30T09:04:54;100682.20;;;25.98;34.28
80414;BME280;69758;52.580;13.068;2023-07-30T09:07:16;100688.12;;;25.87;33.70
80414;BME280;69758;52.580;13.068;2023-07-30T09:09:43;100687.43;;;26.08;32.86
80414;BME280;69758;52.580;13.068;2023-07-30T09:12:13;100691.62;;;25.93;32.81
80414;BME280;69758;52.580;13.068;2023-07-30T09:14:34;100695.94;;;26.30;32.60
80414;BME280;69758;52.580;13.068;2023-07-30T09:17:00;100701.56;;;25.97;32.11
80414;BME280;69758;52.580;13.068;2023-07-30T09:19:25;100707.30;;;25.84;32.86
80414;BME280;69758;52.580;13.068;2023-07-30T09:21:51;100705.96;;;26.32;32.83
80414;BME280;69758;52.580;13.068;2023-07-30T09:24:21;100699.99;;;25.76;33.25
80414;BME280;69758;52.580;13.068;2023-07-30T09:26:44;100696.29;;;25.79;33.58
80414;BME280;69758;52.580;13.068;2023-07-30T09:29:09;100687.51;;;25.68;33.83
80414;BME280;69758;52.580;13.068;2023-07-30T09:31:45;100695.53;;;25.99;33.90
80414;BME280;69758;52.580;13.068;2023-07-30T09:34:00;100699.06;;;25.73;33.46
80414;BME280;69758;52.580;13.068;2023-07-30T09:36:33;100697.22;;;25.80;33.31
80414;BME280;69758;52.580;13.068;2023-07-30T09:38:52;100698.38;;;26.07;33.21
80414;BME280;69758;52.580;13.068;2023-07-30T09:41:18;100692.88;;;25.66;33.31
80414;BME280;69758;52.580;13.068;2023-07-30T09:43:44;100691.72;;;25.75;33.67
80414;BME280;69758;52.580;13.068;2023-07-30T09:46:10;100691.73;;;26.08;32.00
80414;BME280;69758;52.580;13.068;2023-07-30T09:48:35;100692.99;;;25.81;32.50
80414;BME280;69758;52.580;13.068;2023-07-30T09:51:02;100698.08;;;25.71;32.59
80414;BME280;69758;52.580;13.068;2023-07-30T09:53:27;100698.89;;;25.91;32.55
80414;BME280;69758;52.580;13.068;2023-07-30T09:55:53;100701.23;;;26.20;32.82
80414;BME280;69758;52.580;13.068;2023-07-30T09:58:18;100701.88;;;26.16;31.94
80414;BME280;69758;52.580;13.068;2023-07-30T10:00:44;100701.73;;;26.28;31.16
80414;BME280;69758;52.580;13.068;2023-07-30T10:03:12;100695.13;;;25.87;32.26
80414;BME280;69758;52.580;13.068;2023-07-30T10:05:38;100695.96;;;26.19;30.77
80414;BME280;69758;52.580;13.068;2023-07-30T10:08:08;100695.73;;;26.42;31.84
80414;BME280;69758;52.580;13.068;2023-07-30T10:10:29;100700.15;;;26.22;30.69
80414;BME280;69758;52.580;13.068;2023-07-30T10:12:55;100703.52;;;26.66;31.71
80414;BME280;69758;52.580;13.068;2023-07-30T10:15:20;100701.11;;;26.74;32.17
80414;BME280;69758;52.580;13.068;2023-07-30T10:17:55;100702.34;;;26.78;31.51
80414;BME280;69758;52.580;13.068;2023-07-30T10:20:20;100706.43;;;27.02;30.53
80414;BME280;69758;52.580;13.068;2023-07-30T10:22:39;100711.36;;;27.17;31.03
80414;BME280;69758;52.580;13.068;2023-07-30T10:25:04;100714.25;;;27.10;31.06
80414;BME280;69758;52.580;13.068;2023-07-30T10:27:35;100711.76;;;26.93;30.48
80414;BME280;69758;52.580;13.068;2023-07-30T10:30:08;100709.28;;;27.38;30.40
80414;BME280;69758;52.580;13.068;2023-07-30T10:32:20;100711.13;;;27.13;30.22
80414;BME280;69758;52.580;13.068;2023-07-30T10:34:47;100704.14;;;27.11;30.13
80414;BME280;69758;52.580;13.068;2023-07-30T10:37:17;100702.14;;;27.03;28.38
80414;BME280;69758;52.580;13.068;2023-07-30T10:39:38;100705.49;;;27.09;29.92
80414;BME280;69758;52.580;13.068;2023-07-30T10:42:04;100703.12;;;26.96;29.30
80414;BME280;69758;52.580;13.068;2023-07-30T10:44:32;100703.86;;;27.09;29.99
80414;BME280;69758;52.580;13.068;2023-07-30T10:46:56;100704.15;;;27.39;28.89
80414;BME280;69758;52.580;13.068;2023-07-30T10:49:21;100704.63;;;27.53;29.15
80414;BME280;69758;52.580;13.068;2023-07-30T10:51:48;100708.48;;;27.11;28.35
80414;BME280;69758;52.580;13.068;2023-07-30T10:54:13;100707.81;;;27.33;28.95
80414;BME280;69758;52.580;13.068;2023-07-30T10:56:39;100712.96;;;27.20;28.55
80414;BME280;69758;52.580;13.068;2023-07-30T10:59:05;100706.86;;;27.47;29.18
80414;BME280;69758;52.580;13.068;2023-07-30T11:01:30;100709.09;;;27.31;29.26
80414;BME280;69758;52.580;13.068;2023-07-30T11:03:56;100704.16;;;27.43;28.57
80414;BME280;69758;52.580;13.068;2023-07-30T11:06:22;100706.12;;;27.51;28.48
80414;BME280;69758;52.580;13.068;2023-07-30T11:08:48;100706.48;;;27.36;28.20
80414;BME280;69758;52.580;13.068;2023-07-30T11:11:13;100700.71;;;27.47;27.99
80414;BME280;69758;52.580;13.068;2023-07-30T11:13:40;100688.41;;;27.47;26.06
80414;BME280;69758;52.580;13.068;2023-07-30T11:16:13;100698.79;;;27.37;28.25
80414;BME280;69758;52.580;13.068;2023-07-30T11:18:31;100696.57;;;27.08;27.70
80414;BME280;69758;52.580;13.068;2023-07-30T11:21:02;100697.49;;;27.19;28.09
80414;BME280;69758;52.580;13.068;2023-07-30T11:23:23;100692.11;;;27.49;28.43
80414;BME280;69758;52.580;13.068;2023-07-30T11:25:49;100693.17;;;27.89;28.29
80414;BME280;69758;52.580;13.068;2023-07-30T11:28:15;100689.42;;;27.64;27.72
80414;BME280;69758;52.580;13.068;2023-07-30T11:30:41;100692.54;;;27.86;27.81
80414;BME280;69758;52.580;13.068;2023-07-30T11:33:06;100686.24;;;27.96;27.76
80414;BME280;69758;52.580;13.068;2023-07-30T11:35:32;100689.14;;;27.79;26.62
80414;BME280;69758;52.580;13.068;2023-07-30T11:37:57;100691.39;;;27.75;27.36
80414;BME280;69758;52.580;13.068;2023-07-30T11:40:23;100687.95;;;28.09;27.04
80414;BME280;69758;52.580;13.068;2023-07-30T11:42:49;100694.16;;;28.04;27.38
80414;BME280;69758;52.580;13.068;2023-07-30T11:45:19;100686.81;;;28.11;25.10
80414;BME280;69758;52.580;13.068;2023-07-30T11:47:41;100683.79;;;28.27;26.69
80414;BME280;69758;52.580;13.068;2023-07-30T11:50:07;100686.74;;;27.82;26.48
80414;BME280;69758;52.580;13.068;2023-07-30T11:52:32;100682.23;;;28.25;26.71
80414;BME280;69758;52.580;13.068;2023-07-30T11:55:00;100686.67;;;28.27;27.03
80414;BME280;69758;52.580;13.068;2023-07-30T11:57:33;100682.59;;;28.54;25.83
80414;BME280;69758;52.580;13.068;2023-07-30T11:59:50;100688.33;;;28.24;25.87
80414;BME280;69758;52.580;13.068;2023-07-30T12:02:17;100685.44;;;27.92;25.72
80414;BME280;69758;52.580;13.068;2023-07-30T12:04:43;100682.54;;;27.91;25.60
80414;BME280;69758;52.580;13.068;2023-07-30T12:07:09;100681.26;;;28.10;26.01
80414;BME280;69758;52.580;13.068;2023-07-30T12:09:35;100682.20;;;28.03;25.60
80414;BME280;69758;52.580;13.068;2023-07-30T12:12:04;100684.14;;;27.98;26.12
80414;BME280;69758;52.580;13.068;2023-07-30T12:14:26;100686.10;;;28.15;25.46
80414;BME280;69758;52.580;13.068;2023-07-30T12:16:51;100686.49;;;28.27;25.46
80414;BME280;69758;52.580;13.068;2023-07-30T12:19:17;100689.41;;;28.46;25.75
80414;BME280;69758;52.580;13.068;2023-07-30T12:21:42;100686.21;;;28.38;25.46
80414;BME280;69758;52.580;13.068;2023-07-30T12:24:08;100685.80;;;28.63;25.33
80414;BME280;69758;52.580;13.068;2023-07-30T12:26:34;100689.29;;;28.52;25.67
80414;BME280;69758;52.580;13.068;2023-07-30T12:29:01;100691.13;;;28.84;26.11
80414;BME280;69758;52.580;13.068;2023-07-30T12:31:26;100688.93;;;28.85;25.81
80414;BME280;69758;52.580;13.068;2023-07-30T12:33:51;100690.75;;;28.75;25.71
80414;BME280;69758;52.580;13.068;2023-07-30T12:36:17;100694.19;;;28.84;25.75
80414;BME280;69758;52.580;13.068;2023-07-30T12:38:43;100689.69;;;28.98;25.50
80414;BME280;69758;52.580;13.068;2023-07-30T12:41:09;100687.51;;;28.72;25.54
80414;BME280;69758;52.580;13.068;2023-07-30T12:43:39;100683.81;;;28.87;25.74
80414;BME280;69758;52.580;13.068;2023-07-30T12:46:00;100684.05;;;28.75;25.71
80414;BME280;69758;52.580;13.068;2023-07-30T12:48:26;100682.72;;;28.71;26.20
80414;BME280;69758;52.580;13.068;2023-07-30T12:50:52;100683.33;;;28.53;25.72
80414;BME280;69758;52.580;13.068;2023-07-30T12:53:18;100683.36;;;28.50;25.36
80414;BME280;69758;52.580;13.068;2023-07-30T12:55:43;100682.24;;;28.13;25.19
80414;BME280;69758;52.580;13.068;2023-07-30T12:58:09;100683.58;;;28.70;25.50
80414;BME280;69758;52.580;13.068;2023-07-30T13:00:35;100682.94;;;28.17;25.49
80414;BME280;69758;52.580;13.068;2023-07-30T13:03:01;100678.27;;;28.32;25.76
80414;BME280;69758;52.580;13.068;2023-07-30T13:05:27;100676.74;;;28.58;25.93
80414;BME280;69758;52.580;13.068;2023-07-30T13:07:53;100675.60;;;28.33;24.96
80414;BME280;69758;52.580;13.068;2023-07-30T13:10:18;100674.46;;;28.33;24.83
80414;BME280;69758;52.580;13.068;2023-07-30T13:12:44;100671.68;;;28.20;24.93
80414;BME280;69758;52.580;13.068;2023-07-30T13:15:10;100658.97;;;28.22;24.77
80414;BME280;69758;52.580;13.068;2023-07-30T13:17:37;100660.91;;;28.21;24.13
80414;BME280;69758;52.580;13.068;2023-07-30T13:20:02;100666.12;;;27.87;23.56